Latest Weather Observations for Orbost

IDV60801

Issued at 8:02 pm EST Monday 21 August 2017 (issued every 30 minutes, with the page automatically refreshed every 10 minutes)

About weather observations | Map of weather stations | Latest weather observations for VIC | Other Formats
Station Details ID: 084145 Name: ORBOST Lat: -37.69 Lon: 148.47 Height: 62.65 m
Data from the previous 72 hours. | See also: Recent months at Orbost
Date/Time
EST
Temp
°C
App
Temp
°C
Dew
Point
°C
Rel
Hum
%
Delta-T
°C
Wind Press
QNH
hPa
Press
MSL
hPa
Rain since
9am
mm
Dir  Spd
km/h
Gust
km/h
Spd
kts
Gust
kts
21/08:00pm 8.0 6.1 4.8 80 1.4 NE 4 4 2 2 1016.8 1016.9 0.0
21/07:30pm 8.2 6.7 5.0 80 1.4 ENE 2 4 1 2 1016.6 - 0.0
21/07:00pm 8.2 6.7 5.1 81 1.4 ENE 2 2 1 1 1016.5 1016.6 0.0
21/06:30pm 8.6 7.4 4.6 76 1.8 CALM 0 2 0 1 1016.2 - 0.0
21/06:00pm 9.1 7.9 4.5 73 2.0 CALM 0 0 0 0 1016.0 - 0.0
21/05:30pm 9.6 8.4 4.8 72 2.2 CALM 0 0 0 0 1015.8 - 0.0
21/05:00pm 10.3 9.0 4.2 66 2.7 CALM 0 0 0 0 1015.6 1015.7 0.0
21/04:30pm 10.5 8.9 4.6 67 2.7 SW 2 2 1 1 1015.4 - 0.0
21/04:00pm 10.8 9.1 3.8 62 3.1 WSW 2 4 1 2 1015.5 1015.6 0.0
21/03:30pm 10.7 8.5 3.5 61 3.2 WNW 4 6 2 3 1015.5 - 0.0
21/03:00pm 10.8 8.5 2.9 58 3.4 WNW 4 6 2 3 1015.6 - 0.0
21/02:30pm 11.2 9.1 3.7 60 3.3 NW 4 6 2 3 1015.5 - 0.0
21/02:00pm 11.0 8.5 3.5 60 3.3 NW 6 9 3 5 1015.8 1015.9 0.0
21/01:30pm 10.6 8.0 4.3 65 2.8 N 7 11 4 6 1016.2 - 0.0
21/01:00pm 10.5 7.6 4.9 68 2.5 NNW 9 15 5 8 1016.9 1017.0 0.0
21/12:30pm 10.1 6.4 4.3 67 2.6 NNW 13 19 7 10 1017.2 - 0.0
21/12:00pm 9.8 6.4 4.0 67 2.6 WNW 11 19 6 10 1017.5 - 0.0
21/11:30am 9.9 6.3 2.7 61 3.1 NNW 11 28 6 15 1017.7 - 0.0
21/11:00am 9.9 5.0 2.0 58 3.3 NW 17 28 9 15 1018.2 1018.3 0.0
21/10:30am 9.6 7.1 4.0 68 2.5 NW 6 9 3 5 1018.1 - 0.0
21/10:00am 8.6 6.6 4.4 75 1.8 NW 4 6 2 3 1017.7 1017.8 0.0
21/09:30am 7.2 5.0 3.4 77 1.6 NW 4 4 2 2 1017.8 - 0.0
21/09:00am 7.1 4.9 3.3 77 1.6 NNW 4 6 2 3 1017.7 - 0.0
21/08:30am 5.3 3.5 3.6 89 0.7 NNW 2 4 1 2 1017.6 - 0.0
21/08:00am 4.9 3.1 3.2 89 0.7 N 2 2 1 1 1017.6 1017.7 0.0
21/07:30am 4.6 2.7 2.6 87 0.8 NNE 2 6 1 3 1017.5 - 0.0
21/07:00am 4.2 2.2 2.1 86 0.8 NW 2 4 1 2 1017.5 1017.6 0.0
21/06:30am 4.2 2.6 2.4 88 0.7 CALM 0 4 0 2 1017.3 - 0.0
21/06:00am 4.1 1.8 2.5 89 0.6 NNW 4 6 2 3 1017.2 - 0.0
21/05:30am 4.3 2.3 2.2 86 0.8 N 2 6 1 3 1017.0 - 0.0
21/05:00am 3.5 1.4 2.0 90 0.6 NNW 2 2 1 1 1017.0 1017.1 0.0
21/04:30am 2.6 0.1 1.6 93 0.4 NNW 4 6 2 3 1017.3 - 0.0
21/04:00am 2.4 0.6 1.2 92 0.5 CALM 0 4 0 2 1017.3 1017.4 0.0
21/03:30am 3.1 1.5 2.2 94 0.4 CALM 0 0 0 0 1017.5 - 0.0
21/03:00am 1.6 -1.0 0.7 94 0.3 E 4 6 2 3 1017.8 - 0.0
21/02:30am 2.0 -0.2 1.0 93 0.4 NNW 2 4 1 2 1018.3 - 0.0
21/02:00am 2.8 1.0 1.5 91 0.5 CALM 0 2 0 1 1018.5 1018.6 0.0
21/01:30am 2.6 -0.3 1.6 93 0.4 N 6 7 3 4 1018.8 - 0.0
21/01:00am 2.8 1.1 1.8 93 0.4 CALM 0 0 0 0 1019.0 1019.1 0.0
21/12:30am 2.7 0.9 1.5 92 0.5 CALM 0 2 0 1 1019.1 - 0.0
21/12:00am 3.3 0.9 2.1 92 0.5 ENE 4 6 2 3 1019.5 - 0.0
 
Date/Time
EST
Temp
°C
App
Temp
°C
Dew
Point
°C
Rel
Hum
%
Delta-T
°C
Wind Press
QNH
hPa
Press
MSL
hPa
Rain since
9am
mm
Dir  Spd
km/h
Gust
km/h
Spd
kts
Gust
kts
20/11:30pm 3.3 1.2 2.0 91 0.5 ENE 2 2 1 1 1019.8 - 0.0
20/11:00pm 3.3 0.8 1.7 89 0.6 E 4 4 2 2 1020.2 1020.3 0.0
20/10:30pm 3.5 1.9 2.2 91 0.5 CALM 0 4 0 2 1020.4 - 0.0
20/10:00pm 4.2 2.5 1.7 84 1.0 CALM 0 0 0 0 1020.6 1020.7 0.0
20/09:30pm 4.8 3.1 2.0 82 1.1 CALM 0 0 0 0 1020.5 - 0.0
20/09:00pm 5.1 3.0 1.9 80 1.3 NE 2 4 1 2 1020.6 - 0.0
20/08:30pm 5.5 3.1 2.3 80 1.3 NE 4 6 2 3 1021.0 - 0.0
20/08:00pm 5.6 3.3 2.8 82 1.1 NE 4 6 2 3 1021.0 1021.1 0.0
20/07:30pm 6.0 4.1 2.8 80 1.3 NE 2 2 1 1 1021.0 - 0.0
20/07:00pm 5.6 3.3 2.6 81 1.2 ENE 4 4 2 2 1020.9 1021.0 0.0
20/06:30pm 6.5 4.8 1.8 72 1.9 CALM 0 0 0 0 1021.0 - 0.0
20/06:00pm 7.8 6.1 2.1 67 2.4 CALM 0 0 0 0 1020.9 - 0.0
20/05:30pm 8.6 6.2 2.0 63 2.7 SE 4 6 2 3 1020.9 - 0.0
20/05:00pm 9.8 7.0 2.2 59 3.2 SSE 6 9 3 5 1021.1 1021.2 0.0
20/04:30pm 10.7 7.8 1.5 53 3.9 SE 6 9 3 5 1021.5 - 0.0
20/04:00pm 11.2 8.1 1.5 51 4.1 SSE 7 11 4 6 1021.8 1021.9 0.0
20/03:30pm 11.8 8.8 2.0 51 4.2 S 7 13 4 7 1022.1 - 0.0
20/03:00pm 12.3 9.3 1.0 46 4.8 SW 6 9 3 5 1022.0 - 0.0
20/02:30pm 12.2 9.0 0.9 46 4.8 W 7 13 4 7 1022.3 - 0.0
20/02:00pm 11.8 8.7 0.3 45 4.7 SSW 6 9 3 5 1022.6 1022.7 0.0
20/01:30pm 11.5 9.3 1.2 49 4.3 ESE 2 4 1 2 1023.1 - 0.0
20/01:00pm 11.8 9.4 2.0 51 4.2 WSW 4 9 2 5 1023.9 1023.9 0.0
20/12:30pm 10.7 7.2 1.0 51 4.0 W 9 15 5 8 1024.5 - 0.0
20/12:00pm 10.8 6.6 1.4 52 3.9 WNW 13 20 7 11 1025.2 - 0.0
20/11:30am 10.6 6.8 1.9 55 3.7 W 11 17 6 9 1025.9 - 0.0
20/11:00am 10.7 7.0 2.5 57 3.5 WNW 11 17 6 9 1026.1 1026.1 0.0
20/10:30am 10.4 6.3 2.3 57 3.5 W 13 22 7 12 1026.2 - 0.0
20/10:00am 9.8 5.8 2.6 61 3.1 W 13 19 7 10 1026.2 1026.2 0.0
20/09:30am 9.4 6.2 2.9 64 2.8 WNW 9 15 5 8 1026.2 - 0.0
20/09:00am 9.0 5.8 3.0 66 2.6 NW 9 13 5 7 1026.3 - 0.0
20/08:30am 8.3 5.3 2.1 65 2.6 NW 7 11 4 6 1026.6 - 0.0
20/08:00am 7.6 4.8 2.1 68 2.3 NW 6 7 3 4 1026.4 1026.4 0.0
20/07:30am 6.8 3.4 2.1 72 1.9 NNW 9 11 5 6 1026.3 - 0.0
20/07:00am 6.0 3.1 2.5 78 1.4 N 7 11 4 6 1026.1 1026.1 0.0
20/06:30am 6.6 3.8 2.3 74 1.8 NW 6 11 3 6 1026.1 - 0.0
20/06:00am 6.6 3.8 2.3 74 1.8 NW 6 9 3 5 1025.7 - 0.0
20/05:30am 6.4 3.5 2.5 76 1.6 NW 7 13 4 7 1025.5 - 0.0
20/05:00am 5.7 2.7 2.2 78 1.4 NNW 7 11 4 6 1025.6 1025.6 0.0
20/04:30am 5.9 3.0 2.4 78 1.4 NNW 7 11 4 6 1025.4 - 0.0
20/04:00am 5.3 2.0 2.3 81 1.2 N 9 13 5 7 1025.2 1025.2 0.0
20/03:30am 5.0 2.1 1.7 79 1.3 NW 6 9 3 5 1025.4 - 0.0
20/03:00am 5.3 2.3 2.0 79 1.3 NW 7 11 4 6 1025.6 - 0.0
20/02:30am 5.5 2.1 2.0 78 1.4 WNW 9 13 5 7 1025.7 - 0.0
20/02:00am 5.7 2.7 2.2 78 1.4 WNW 7 15 4 8 1025.8 1025.8 0.0
20/01:30am 5.8 2.8 2.1 77 1.5 WNW 7 13 4 7 1025.7 - 0.0
20/01:00am 6.1 2.4 2.2 76 1.6 WNW 11 17 6 9 1025.6 1025.6 0.0
20/12:30am 6.0 2.6 1.7 74 1.7 NW 9 19 5 10 1025.7 - 0.0
20/12:00am 5.7 2.6 1.4 74 1.7 WNW 7 13 4 7 1025.8 - 0.0
 
Date/Time
EST
Temp
°C
App
Temp
°C
Dew
Point
°C
Rel
Hum
%
Delta-T
°C
Wind Press
QNH
hPa
Press
MSL
hPa
Rain since
9am
mm
Dir  Spd
km/h
Gust
km/h
Spd
kts
Gust
kts
19/11:30pm 6.1 3.0 1.4 72 1.9 WNW 7 13 4 7 1025.7 - 0.0
19/11:00pm 6.4 3.4 1.7 72 1.9 NW 7 11 4 6 1025.8 1025.8 0.0
19/10:30pm 6.5 3.5 1.8 72 1.9 WNW 7 13 4 7 1025.9 - 0.0
19/10:00pm 6.6 2.9 2.1 73 1.8 WNW 11 17 6 9 1025.8 1025.8 0.0
19/09:30pm 6.6 3.2 1.7 71 2.0 WNW 9 17 5 9 1025.9 - 0.0
19/09:00pm 7.3 3.5 2.0 69 2.2 WNW 11 19 6 10 1025.9 - 0.0
19/08:30pm 7.4 4.0 2.1 69 2.2 WNW 9 13 5 7 1025.9 - 0.0
19/08:00pm 7.6 4.8 2.1 68 2.3 WNW 6 9 3 5 1026.0 1026.0 0.0
19/07:30pm 8.0 4.2 1.6 64 2.6 WSW 11 26 6 14 1025.9 - 0.0
19/07:00pm 8.4 5.0 1.6 62 2.8 WSW 9 17 5 9 1025.8 1025.8 0.0
19/06:30pm 8.1 5.1 1.7 64 2.6 WSW 7 15 4 8 1025.6 - 0.0
19/06:00pm 8.0 4.5 1.2 62 2.8 WSW 9 17 5 9 1025.3 - 0.0
19/05:30pm 8.6 4.3 1.1 59 3.1 WSW 13 22 7 12 1025.1 - 0.0
19/05:00pm 9.3 5.2 2.4 62 2.9 SW 13 20 7 11 1024.9 1024.9 0.0
19/04:30pm 9.8 5.2 1.7 57 3.4 SW 15 22 8 12 1024.5 - 0.0
19/04:00pm 10.3 5.0 1.7 55 3.6 SW 19 28 10 15 1024.4 1024.4 0.0
19/03:30pm 10.2 4.3 1.6 55 3.6 SW 22 32 12 17 1024.2 - 0.0
19/03:00pm 11.2 5.0 2.0 53 3.9 SW 24 33 13 18 1024.0 - 0.0
19/02:30pm 10.1 3.6 0.4 51 3.9 SSW 24 35 13 19 1023.7 - 0.0
19/02:00pm 10.4 3.7 1.2 53 3.8 SW 26 41 14 22 1023.5 1023.6 0.0
19/01:30pm 11.2 6.0 3.3 58 3.5 WSW 20 32 11 17 1023.4 - 0.0
19/01:00pm 10.4 5.4 3.4 62 3.0 WSW 19 30 10 16 1023.3 1023.4 0.0
19/12:30pm 10.1 4.5 3.2 62 3.0 WSW 22 32 12 17 1023.4 - 0.0
19/12:00pm 10.6 5.4 3.6 62 3.1 WSW 20 28 11 15 1023.4 - 0.0
19/11:30am 9.4 5.3 4.6 72 2.1 WSW 15 28 8 15 1023.4 - 0.0
19/11:00am 9.2 5.3 5.2 76 1.8 W 15 22 8 12 1023.4 1023.5 0.0
19/10:30am 9.2 4.9 5.2 76 1.8 W 17 24 9 13 1023.3 - 0.0
19/10:00am 8.0 3.2 4.9 81 1.4 W 19 26 10 14 1023.3 1023.4 0.0
19/09:30am 8.1 3.7 4.9 80 1.4 W 17 26 9 14 1022.9 - 0.0
19/09:00am 6.9 2.8 4.4 84 1.1 W 15 26 8 14 1022.5 - 3.2
19/08:30am 6.6 3.3 4.6 87 0.9 W 11 15 6 8 1022.2 - 3.2
19/08:00am 5.7 2.7 4.3 91 0.6 WNW 9 15 5 8 1021.8 1021.9 3.2
19/07:30am 5.0 2.0 4.0 93 0.4 WNW 9 15 5 8 1021.4 - 3.2
19/07:00am 4.7 1.9 3.4 91 0.5 NW 7 13 4 7 1020.7 1020.8 3.2
19/06:30am 4.9 2.4 3.6 91 0.5 WNW 6 11 3 6 1020.4 - 2.6
19/06:00am 4.7 1.6 3.4 91 0.5 WNW 9 13 5 7 1019.5 - 2.4
19/05:30am 5.1 1.3 3.8 91 0.5 WNW 13 22 7 12 1019.2 - 2.2
19/05:00am 5.1 1.7 3.8 91 0.5 WNW 11 20 6 11 1018.8 1018.9 2.2
19/04:30am 5.1 1.2 3.6 90 0.6 WNW 13 20 7 11 1018.4 - 2.2
19/04:00am 5.3 1.1 4.0 91 0.5 W 15 28 8 15 1017.9 1018.0 2.2
19/03:30am 5.5 1.1 4.5 93 0.4 WNW 17 28 9 15 1017.6 - 2.2
19/03:00am 6.1 2.0 4.1 87 0.9 W 15 28 8 15 1017.4 - 1.0
19/02:30am 6.4 1.4 3.6 82 1.2 W 19 28 10 15 1017.3 - 0.6
19/02:00am 6.3 1.6 3.1 80 1.3 WNW 17 26 9 14 1016.5 1016.6 0.4
19/01:30am 6.6 1.9 2.9 77 1.5 W 17 24 9 13 1016.6 - 0.4
19/01:00am 6.8 2.5 3.2 78 1.5 W 15 24 8 13 1016.4 1016.5 0.4
19/12:30am 7.0 2.8 3.6 79 1.4 W 15 24 8 13 1016.1 - 0.4
19/12:00am 7.1 1.9 3.5 78 1.5 WNW 20 35 11 19 1015.6 - 0.4
 
Date/Time
EST
Temp
°C
App
Temp
°C
Dew
Point
°C
Rel
Hum
%
Delta-T
°C
Wind Press
QNH
hPa
Press
MSL
hPa
Rain since
9am
mm
Dir  Spd
km/h
Gust
km/h
Spd
kts
Gust
kts
18/11:30pm 7.0 2.8 3.8 80 1.4 WNW 15 28 8 15 1015.4 - 0.4
18/11:00pm 6.7 1.9 4.4 85 1.0 W 19 28 10 15 1015.3 1015.4 0.4
18/10:30pm 7.3 2.0 3.2 75 1.7 W 20 33 11 18 1014.9 - 0.0
18/10:00pm 7.5 2.4 3.2 74 1.8 WNW 19 28 10 15 1014.6 1014.7 0.0
18/09:30pm 7.3 2.6 3.0 74 1.8 WNW 17 26 9 14 1014.3 - 0.0
18/09:00pm 7.5 2.7 2.8 72 2.0 WNW 17 28 9 15 1014.0 - 0.0
18/08:30pm 7.5 3.1 2.8 72 2.0 WNW 15 28 8 15 1013.7 - 0.0

Other Formats:

Comma delimited format used in spreadsheet applications
http://www.bom.gov.au/fwo/IDV60801/IDV60801.95918.axf

JavaScript Object Notation format (JSON) in row-major order
http://www.bom.gov.au/fwo/IDV60801/IDV60801.95918.json